LIVDLOWS

Guest
Details From LIVD - Dobbiaco
To LOWS - Salzburg Maxglan
Flight Number -
Tags generated
Created
Modified
Stats Distance 72 nm / 133 km
Max Altitude 1,800 ft / 549 m
Waypoints 3
Social Downloads 0
Likes 0
Share VATSIM

Download

Looking for another format? Having issues loading an existing format? Contact us
Advertisement - Login to hide

Notes

Basic altitude profile: - Ascent Rate: 2500ft/min - Ascent Speed: 250kts - Cruise Altitude: 35000ft - Cruise Speed: 420kts - Descent Rate: 1500ft/min - Descent Speed: 250kts Options: - Use NATs: yes - Use PACOTS: yes - Use low airways: yes - Use high airways: yes

Route

LIVD DETSA LOWS

ID Type Via Altitude Latitude Longitude Leg Dist Tot Dist Heading (true) Name
O LIVD APT - 0 ft / 0 m 46.72611˚ 12.22416˚ - 0 nm - Dobbiaco
DETSA FIX - 1,800 ft / 549 m 46.80250˚ 12.28111˚ 5 nm 5 nm 27° / 27° -
O LOWS APT - 0 ft / 0 m 47.79333˚ 13.00433˚ 66 nm 71 nm 26° / 27° Salzburg Maxglan

Altitude Profile

Advertisement - Login to hide

LIVD

Details ICAO LIVD
Name Dobbiaco
Region Italy
Timezone Europe/Rome (UTC+1.0)
Stats Elevation 3,982 ft / 1,214 m (AMSL)
Location 46.726111° 12.224161°
Runways 1
Magnetic Variation 3.201° E

METAR

LIVD 161255Z 00000KT 9999 FEW025 M02/M07 Q1006 RMK SCT VIS MIN 9999

Decode

TAF

Not found

Departure Runways

ID Width Length Bearing (true) Bearing (mag) Surface Threshold Offset Overrun Length
09 164 ft / 50 m 3,119 ft / 951 m 90.00° 86.80° Dirt 0 ft / 0 m 0 ft / 0 m
27 164 ft / 50 m 3,119 ft / 951 m 270.00° 266.80° Dirt 0 ft / 0 m 0 ft / 0 m

LOWS

Details ICAO LOWS (SZG)
Name Salzburg Maxglan
Region Austria
Timezone Europe/Vienna (UTC+1.0)
Stats Elevation 1,411 ft / 430 m (AMSL)
Location 47.793333° 13.004333°
Runways 1
Magnetic Variation 3.428° E

METAR

LOWS 161320Z VRB02KT 9999 FEW007 SCT035 BKN045 02/01 Q1009 NOSIG

Decode

TAF

TAF LOWS 161115Z 1612/1712 15005KT 9999 -SN FEW030 BKN050 TX02/1613Z TNM01/1706Z TEMPO 1618/1712 29007KT 4000 SN FEW008 BKN025 PROB40 TEMPO 1618/1700 29010KT 1500 SCT008 BKN012

Decode

Destination Runways

ID Width Length Bearing (true) Bearing (mag) Surface Threshold Offset Overrun Length
16 148 ft / 45 m 9,024 ft / 2,751 m 157.08° 153.65° Concrete 656 ft / 200 m 0 ft / 0 m
34 148 ft / 45 m 9,024 ft / 2,751 m 337.09° 333.66° Concrete 787 ft / 240 m 0 ft / 0 m

Approach Navaids

Runway Type Ident Frequency Range Bearing (true) Bearing (mag) Slope Elevation
16 Localiser OES 109.90 MHz 18 nm / 33 km 157.53° 154.11° - 1,411 ft / 430 m (AMSL)
16 Glidescope OES 109.90 MHz 10 nm / 19 km 157.09° 153.66° 3.00° 1,446 ft / 441 m (AMSL)
16 DME OES 109.90 MHz 18 nm / 33 km - - - 1,446 ft / 441 m (AMSL)